Chitral Weather



Chitral's Current Weather

Temprature 10.662o clear sky

clear sky

Rain: 0 %

Min Temprature10.662o
Max Temprature10.662o
Humidity26
Wind Speed3.08 m/h
Sun Rise04:57:58
Sun Set19:32:59
Current Time: 26-Jun-2019 15:14:25
Lat/Lon: 35.85, 71.79




Chitral's Geo Location



Chitral's Weather Forecast

Time Overall Temp Min Temp Max Temp Humidity Wind Speed Rain
26-Jun-2019 (Wed)
17:00:00 clear sky 10.650 10.650 10.650 27 3.38 m/h 0 %
20:00:00 clear sky 6.850 6.847 6.850 48 3.7 m/h 0 %
23:00:00 clear sky 3.840 3.840 3.840 63 3.69 m/h 0 %
27-Jun-2019 (Thu)
02:00:00 clear sky 2.280 2.279 2.280 68 3.69 m/h 0 %
05:00:00 clear sky 1.165 1.165 1.165 73 3.84 m/h 0 %
08:00:00 clear sky 5.450 5.450 5.450 54 3.27 m/h 0 %
11:00:00 clear sky 8.874 8.874 8.874 37 2.49 m/h 0 %
14:00:00 few clouds 10.750 10.750 10.750 29 2.84 m/h 0 %
17:00:00 scattered clouds 10.980 10.980 10.980 26 3.35 m/h 0 %
20:00:00 few clouds 7.294 7.294 7.294 47 3.88 m/h 0 %
23:00:00 few clouds 4.535 4.535 4.535 62 3.49 m/h 0 %
28-Jun-2019 (Fri)
02:00:00 clear sky 3.028 3.028 3.028 63 3.33 m/h 0 %
05:00:00 clear sky 1.628 1.628 1.628 62 3.38 m/h 0 %
08:00:00 clear sky 6.549 6.549 6.549 36 2.28 m/h 0 %
11:00:00 clear sky 10.325 10.325 10.325 22 0.59 m/h 0 %
14:00:00 clear sky 12.631 12.631 12.631 19 0.71 m/h 0 %
17:00:00 scattered clouds 12.350 12.350 12.350 30 3.06 m/h 0 %
20:00:00 broken clouds 10.350 10.350 10.350 42 1.24 m/h 0 %
23:00:00 broken clouds 7.072 7.072 7.072 48 3.19 m/h 0 %
29-Jun-2019 (Sat)
02:00:00 clear sky 5.072 5.072 5.072 53 3.19 m/h 0 %
05:00:00 clear sky 3.779 3.779 3.779 54 3.32 m/h 0 %
08:00:00 clear sky 8.257 8.257 8.257 39 1.7 m/h 0 %
11:00:00 few clouds 11.850 11.850 11.850 28 1.32 m/h 0 %
14:00:00 light rain 8.150 8.150 8.150 60 5.41 m/h 138 %
17:00:00 light rain 8.691 8.691 8.691 59 3.29 m/h 181 %
20:00:00 light rain 7.350 7.350 7.350 64 1.93 m/h 150 %
23:00:00 light rain 6.550 6.550 6.550 67 1.16 m/h 13 %
30-Jun-2019 (Sun)
02:00:00 scattered clouds 5.086 5.086 5.086 64 1.62 m/h 0 %
05:00:00 few clouds 3.782 3.782 3.782 64 2.14 m/h 0 %
08:00:00 clear sky 8.272 8.272 8.272 45 1.3 m/h 0 %
11:00:00 clear sky 11.818 11.818 11.818 31 1.53 m/h 0 %
14:00:00 broken clouds 14.308 14.308 14.308 22 1.72 m/h 0 %
17:00:00 broken clouds 14.650 14.650 14.650 22 1.21 m/h 0 %
20:00:00 scattered clouds 11.750 11.750 11.750 39 1.31 m/h 0 %
23:00:00 scattered clouds 8.750 8.750 8.750 50 3.19 m/h 0 %
01-Jul-2019 (Mon)
02:00:00 clear sky 6.550 6.550 6.550 51 3.38 m/h 0 %
05:00:00 clear sky 4.935 4.935 4.935 49 3.52 m/h 0 %
08:00:00 clear sky 9.550 9.550 9.550 32 2.79 m/h 0 %
11:00:00 clear sky 13.350 13.350 13.350 17 1.95 m/h 0 %
14:00:00 clear sky 15.850 15.850 15.850 16 2.85 m/h 0 %

Famous Cities (60)